Time;durP1;ratioP1;P1;durP2;ratioP2;P2;SDS_P1;SDS_P2;PMS_P1;PMS_P2;Temp;Humidity;BMP_temperature;BMP_pressure;BME280_temperature;BME280_humidity;BME280_pressure;Samples;Min_cycle;Max_cycle;Signal;HPM_P1;HPM_P2
2021/12/10 00:00:10;;;;;;;2.22;1.42;;;;;;;;;;5046536;28;20028;-79
2021/12/10 00:02:38;;;;;;;2.10;1.15;;;;;;;;;;5046913;28;20031;-79
2021/12/10 00:05:05;;;;;;;2.53;1.13;;;;;;;;;;5045020;28;20036;-79
2021/12/10 00:07:31;;;;;;;3.45;1.90;;;;;;;;;;5045474;28;20036;-79
2021/12/10 00:10:03;;;;;;;9.73;1.50;;;3.60;99.90;;;;;;5043826;28;20163;-79
2021/12/10 00:12:31;;;;;;;9.52;2.30;;;;;;;;;;5044772;28;20048;-79
2021/12/10 00:14:57;;;;;;;4.18;1.15;;;;;;;;;;5053602;28;20058;-81
2021/12/10 00:17:23;;;;;;;3.17;1.52;;;;;;;;;;5049490;28;20091;-80
2021/12/10 00:19:55;;;;;;;2.85;1.38;;;3.50;99.90;;;;;;5040852;28;20086;-80
2021/12/10 00:22:45;;;;;;;2.75;1.60;;;;;;;;;;5042618;28;20100;-80
2021/12/10 00:25:17;;;;;;;4.75;1.13;;;;;;;;;;5043351;28;20017;-79
2021/12/10 00:27:43;;;;;;;6.28;1.65;;;;;;;;;;5041032;28;20040;-79
2021/12/10 00:30:14;;;;;;;9.85;1.80;;;;;;;;;;5041717;28;20021;-79
2021/12/10 00:32:57;;;;;;;2.35;1.23;;;2.40;99.90;;;;;;5048407;28;20050;-80
2021/12/10 00:35:27;;;;;;;5.63;1.42;;;3.50;99.90;;;;;;5045791;28;20115;-79
2021/12/10 00:37:53;;;;;;;3.47;1.48;;;;;;;;;;5044867;28;20029;-79
2021/12/10 00:40:20;;;;;;;2.17;1.10;;;;;;;;;;5044230;28;20064;-79
2021/12/10 00:42:47;;;;;;;2.67;1.45;;;;;;;;;;5042238;28;20073;-80
2021/12/10 00:45:14;;;;;;;10.32;1.45;;;;;;;;;;5042130;28;20036;-79
2021/12/10 00:47:40;;;;;;;2.70;1.15;;;;;;;;;;5047961;28;20427;-79
2021/12/10 00:50:09;;;;;;;3.83;1.67;;;;;;;;;;5043226;28;20092;-80
2021/12/10 00:52:35;;;;;;;4.60;1.27;;;;;;;;;;5046135;28;20493;-79
2021/12/10 00:55:01;;;;;;;0.80;0.75;;;;;;;;;;5038644;28;20033;-81
2021/12/10 00:57:27;;;;;;;3.13;1.08;;;;;;;;;;5046492;28;20043;-79
2021/12/10 00:59:53;;;;;;;1.67;1.42;;;;;;;;;;5040061;28;20040;-80
2021/12/10 01:02:21;;;;;;;4.40;2.00;;;;;;;;;;5045104;28;20538;-79
2021/12/10 01:04:48;;;;;;;1.30;1.10;;;;;;;;;;5050892;28;20121;-80
2021/12/10 01:07:16;;;;;;;2.92;1.42;;;;;;;;;;5043236;28;20021;-80
2021/12/10 01:09:44;;;;;;;4.32;1.45;;;;;;;;;;5043868;28;20089;-79
2021/12/10 01:12:13;;;;;;;2.05;1.02;;;;;;;;;;5039090;28;20461;-80
2021/12/10 01:15:18;;;;;;;1.58;0.80;;;;;;;;;;5045379;28;20323;-79
2021/12/10 01:26:21;;;;;;;1.65;1.20;;;;;;;;;;5040877;28;20476;-80
2021/12/10 01:28:51;;;;;;;1.75;0.80;;;;;;;;;;5045883;28;20040;-81
2021/12/10 01:31:17;;;;;;;2.45;0.85;;;;;;;;;;5045392;28;20465;-80
2021/12/10 01:33:44;;;;;;;2.17;1.02;;;1.10;99.90;;;;;;5051943;28;20072;-80
2021/12/10 01:36:10;;;;;;;2.55;1.38;;;1.80;99.90;;;;;;5049279;28;20074;-80
2021/12/10 01:38:38;;;;;;;2.38;1.13;;;;;;;;;;5047035;28;20036;-80
2021/12/10 01:41:07;;;;;;;1.15;0.90;;;2.00;99.90;;;;;;5044011;28;20665;-80
2021/12/10 01:43:35;;;;;;;2.05;1.05;;;;;;;;;;5039717;28;20029;-81
2021/12/10 01:46:06;;;;;;;1.67;0.63;;;;;;;;;;5037641;28;20033;-80
2021/12/10 01:48:35;;;;;;;1.85;0.88;;;;;;;;;;5041900;28;20037;-79
2021/12/10 01:51:01;;;;;;;6.13;1.10;;;;;;;;;;5042274;28;20397;-80
2021/12/10 01:53:30;;;;;;;2.08;1.45;;;;;;;;;;5046402;28;20041;-80
2021/12/10 01:55:58;;;;;;;2.03;0.90;;;;;;;;;;5043121;28;20060;-80
2021/12/10 01:58:26;;;;;;;1.90;1.20;;;1.00;99.90;;;;;;5042514;28;20409;-80
2021/12/10 02:00:56;;;;;;;1.60;0.85;;;;;;;;;;5039012;28;20048;-80
2021/12/10 02:03:22;;;;;;;1.33;1.08;;;;;;;;;;5033734;28;20021;-80
2021/12/10 02:05:48;;;;;;;3.67;1.17;;;;;;;;;;5039788;28;20029;-80
2021/12/10 02:08:14;;;;;;;1.17;0.98;;;;;;;;;;5043032;28;20025;-80
2021/12/10 02:10:40;;;;;;;2.33;0.75;;;;;;;;;;5036652;28;20443;-80
2021/12/10 02:13:06;;;;;;;0.90;0.90;;;;;;;;;;5040655;28;20045;-80
2021/12/10 02:15:32;;;;;;;6.00;1.23;;;;;;;;;;5043518;28;20072;-81
2021/12/10 02:17:59;;;;;;;6.82;1.80;;;0.80;99.90;;;;;;5043266;28;20033;-80
2021/12/10 02:20:34;;;;;;;3.20;1.35;;;;;;;;;;5045116;28;20076;-81
2021/12/10 02:23:02;;;;;;;2.88;1.60;;;1.70;99.90;;;;;;5040228;28;20366;-80
2021/12/10 02:25:30;;;;;;;3.47;0.88;;;;;;;;;;5039529;28;20033;-80
2021/12/10 02:27:56;;;;;;;1.83;1.23;;;;;;;;;;5048727;28;20036;-81
2021/12/10 02:30:25;;;;;;;2.15;1.08;;;;;;;;;;5038006;28;20087;-80
2021/12/10 02:32:51;;;;;;;3.15;1.52;;;;;;;;;;5029474;28;20045;-80
2021/12/10 02:35:17;;;;;;;3.42;0.88;;;;;;;;;;5033153;28;20034;-80
2021/12/10 02:37:44;;;;;;;3.22;0.98;;;;;;;;;;5037275;28;20933;-80
2021/12/10 02:40:12;;;;;;;3.35;1.85;;;;;;;;;;5043795;28;20067;-80
2021/12/10 02:42:38;;;;;;;0.73;0.73;;;;;;;;;;5041172;28;20432;-81
2021/12/10 02:45:07;;;;;;;0.95;0.73;;;0.40;99.90;;;;;;5037028;28;20037;-80
2021/12/10 02:47:33;;;;;;;1.52;0.77;;;;;;;;;;5040575;28;20484;-80
2021/12/10 02:50:00;;;;;;;0.85;0.73;;;;;;;;;;5038864;28;20396;-80
2021/12/10 02:52:27;;;;;;;4.75;1.08;;;;;;;;;;5035353;28;20041;-81
2021/12/10 02:54:53;;;;;;;2.67;1.02;;;;;;;;;;5041490;28;20112;-80
2021/12/10 02:57:20;;;;;;;1.63;0.98;;;;;;;;;;5040976;28;20397;-81
2021/12/10 02:59:46;;;;;;;2.78;0.93;;;;;;;;;;5037750;28;20025;-81
2021/12/10 03:02:14;;;;;;;1.30;0.93;;;;;;;;;;5037005;28;20029;-81
2021/12/10 03:04:42;;;;;;;2.50;0.70;;;0.50;99.90;;;;;;5041009;28;20040;-80
2021/12/10 03:07:12;;;;;;;0.52;0.52;;;;;;;;;;5037668;28;20045;-81
2021/12/10 03:09:45;;;;;;;0.70;0.40;;;0.40;99.90;;;;;;5041057;28;20025;-81
2021/12/10 03:12:12;;;;;;;0.77;0.70;;;;;;;;;;5040607;28;20025;-82
2021/12/10 03:14:39;;;;;;;3.08;1.17;;;;;;;;;;5047084;28;20033;-80
2021/12/10 03:17:07;;;;;;;2.40;1.00;;;;;;;;;;5040443;28;20436;-83
2021/12/10 03:19:33;;;;;;;1.33;0.77;;;;;;;;;;5051035;28;20025;-80
2021/12/10 03:22:00;;;;;;;1.75;0.95;;;;;;;;;;5040877;28;20052;-83
2021/12/10 03:24:27;;;;;;;1.58;0.73;;;-0.60;99.90;;;;;;5041269;28;20049;-82
2021/12/10 03:26:54;;;;;;;1.17;0.68;;;;;;;;;;5043938;28;20445;-81
2021/12/10 03:29:21;;;;;;;0.52;0.52;;;;;;;;;;5041484;28;20025;-81
2021/12/10 03:31:47;;;;;;;3.58;1.35;;;;;;;;;;5037641;28;20029;-82
2021/12/10 03:34:13;;;;;;;1.52;0.70;;;;;;;;;;5041720;28;20067;-81
2021/12/10 03:36:45;;;;;;;0.80;0.73;;;;;;;;;;5043795;28;20069;-80
2021/12/10 03:39:13;;;;;;;1.05;0.68;;;;;;;;;;5037189;28;20031;-83
2021/12/10 03:41:39;;;;;;;1.35;0.55;;;;;;;;;;5046732;28;20025;-81
2021/12/10 03:44:06;;;;;;;0.70;0.60;;;;;;;;;;5042894;28;20045;-81
2021/12/10 03:46:32;;;;;;;3.33;0.73;;;;;;;;;;5033963;28;20037;-83
2021/12/10 03:49:03;;;;;;;2.67;1.20;;;;;;;;;;5042122;28;20030;-81
2021/12/10 03:51:29;;;;;;;1.30;0.88;;;;;;;;;;5036805;28;20060;-82
2021/12/10 03:53:55;;;;;;;1.85;0.70;;;;;;;;;;5039224;28;20048;-81
2021/12/10 03:56:23;;;;;;;0.90;0.75;;;;;;;;;;5040502;28;21503;-82
2021/12/10 03:58:49;;;;;;;1.30;0.80;;;;;;;;;;5038163;28;20033;-82
2021/12/10 04:01:18;;;;;;;3.15;1.02;;;;;;;;;;5038444;28;20033;-82
2021/12/10 04:03:45;;;;;;;3.72;1.10;;;;;;;;;;5042428;28;20045;-82
2021/12/10 04:06:11;;;;;;;1.38;1.05;;;;;;;;;;5037765;28;20038;-82
2021/12/10 04:08:37;;;;;;;2.22;1.58;;;;;;;;;;5041672;28;20040;-81
2021/12/10 04:11:04;;;;;;;1.35;1.20;;;;;;;;;;5040135;28;20017;-81
2021/12/10 04:13:30;;;;;;;1.20;0.80;;;;;;;;;;5045044;28;20086;-81
2021/12/10 04:15:56;;;;;;;2.17;1.33;;;;;;;;;;5038477;28;20029;-82
2021/12/10 04:18:22;;;;;;;3.63;1.90;;;;;;;;;;5030466;28;20111;-81
2021/12/10 04:20:48;;;;;;;0.88;0.65;;;;;;;;;;5032777;28;20116;-82
2021/12/10 04:23:15;;;;;;;1.60;1.17;;;;;;;;;;5038938;28;20026;-81
2021/12/10 04:25:42;;;;;;;1.98;0.90;;;;;;;;;;5040472;28;20421;-82
2021/12/10 04:28:09;;;;;;;1.05;0.60;;;;;;;;;;5040867;28;20036;-81
2021/12/10 04:30:40;;;;;;;1.20;0.80;;;-0.50;99.90;;;;;;5041261;28;20484;-81
2021/12/10 04:33:08;;;;;;;1.23;0.85;;;;;;;;;;5036485;28;20404;-82
2021/12/10 04:35:34;;;;;;;2.05;0.95;;;0.30;99.90;;;;;;5044436;28;20013;-82
2021/12/10 04:38:01;;;;;;;0.70;0.50;;;;;;;;;;5043118;28;20465;-82
2021/12/10 04:40:27;;;;;;;0.93;0.85;;;;;;;;;;5043258;28;20484;-82
2021/12/10 04:42:53;;;;;;;0.98;0.75;;;;;;;;;;5043838;28;20467;-82
2021/12/10 04:45:20;;;;;;;1.05;0.57;;;-0.60;99.90;;;;;;5040369;28;20017;-81
2021/12/10 04:47:47;;;;;;;0.57;0.47;;;;;;;;;;5050197;28;20021;-81
2021/12/10 04:50:14;;;;;;;1.50;1.00;;;0.30;99.90;;;;;;5036152;28;20645;-81
2021/12/10 04:52:40;;;;;;;1.20;0.73;;;;;;;;;;5037870;28;20045;-81
2021/12/10 04:55:08;;;;;;;0.70;0.63;;;;;;;;;;5042716;28;20619;-82
2021/12/10 04:57:34;;;;;;;0.47;0.47;;;;;;;;;;5041748;28;20052;-82
2021/12/10 05:00:00;;;;;;;0.70;0.55;;;;;;;;;;5043391;28;20378;-82
2021/12/10 05:02:26;;;;;;;1.02;0.75;;;;;;;;;;5046467;28;20037;-81
2021/12/10 05:04:57;;;;;;;2.30;0.95;;;;;;;;;;5046079;28;20018;-82
2021/12/10 05:07:23;;;;;;;0.70;0.60;;;;;;;;;;5031736;28;20025;-82
2021/12/10 05:09:49;;;;;;;1.17;0.75;;;;;;;;;;5033287;28;20022;-82
2021/12/10 05:12:15;;;;;;;1.98;1.00;;;;;;;;;;5036384;28;20033;-82
2021/12/10 05:14:41;;;;;;;2.25;1.17;;;;;;;;;;5039788;28;20037;-82
2021/12/10 05:17:09;;;;;;;1.38;0.98;;;;;;;;;;5038437;28;20029;-83
2021/12/10 05:19:36;;;;;;;1.38;1.08;;;;;;;;;;5038078;28;20029;-82
2021/12/10 05:22:04;;;;;;;2.30;1.00;;;;;;;;;;5041561;28;20121;-81
2021/12/10 05:24:30;;;;;;;1.20;0.65;;;-0.80;99.90;;;;;;5036783;28;20079;-81
2021/12/10 05:26:57;;;;;;;2.20;1.10;;;;;;;;;;5031238;28;20017;-82
2021/12/10 05:29:23;;;;;;;0.50;0.50;;;;;;;;;;5029497;28;20520;-81
2021/12/10 05:31:50;;;;;;;1.75;1.05;;;;;;;;;;5034972;28;20022;-88
2021/12/10 05:34:16;;;;;;;2.00;1.02;;;;;;;;;;5020839;28;20046;-83
2021/12/10 05:36:43;;;;;;;1.70;0.60;;;;;;;;;;5034331;28;20078;-84
2021/12/10 05:39:10;;;;;;;2.95;1.45;;;;;;;;;;5024993;28;20117;-79
2021/12/10 05:41:36;;;;;;;1.75;1.05;;;;;;;;;;5025105;28;20025;-81
2021/12/10 05:44:02;;;;;;;2.30;0.85;;;;;;;;;;5027574;28;20022;-82
2021/12/10 05:46:28;;;;;;;1.33;0.70;;;;;;;;;;5043908;28;20032;-78
2021/12/10 05:48:54;;;;;;;0.80;0.70;;;;;;;;;;5038966;28;20435;-80
2021/12/10 05:51:20;;;;;;;1.55;1.05;;;;;;;;;;5046374;28;20037;-82
2021/12/10 05:53:46;;;;;;;1.73;0.82;;;;;;;;;;5041922;28;20045;-81
2021/12/10 05:56:13;;;;;;;3.40;1.15;;;;;;;;;;5042736;28;20194;-81
2021/12/10 05:58:39;;;;;;;1.83;1.45;;;;;;;;;;5039621;28;20029;-80
2021/12/10 06:01:07;;;;;;;1.80;0.60;;;;;;;;;;5038364;28;20079;-81
2021/12/10 06:03:34;;;;;;;5.75;1.50;;;;;;;;;;5051000;28;20033;-82
2021/12/10 06:06:00;;;;;;;2.70;1.15;;;;;;;;;;5066272;28;20025;-80
2021/12/10 06:08:26;;;;;;;1.98;1.02;;;;;;;;;;5046371;28;20035;-83
2021/12/10 06:10:53;;;;;;;2.78;1.35;;;;;;;;;;5039035;28;20075;-82
2021/12/10 06:13:19;;;;;;;3.53;1.52;;;;;;;;;;5040159;28;20049;-83
2021/12/10 06:15:45;;;;;;;0.68;0.68;;;;;;;;;;5041541;28;20724;-82
2021/12/10 06:18:12;;;;;;;1.00;0.70;;;;;;;;;;5035411;28;20029;-82
2021/12/10 06:20:42;;;;;;;0.70;0.70;;;-0.80;99.90;;;;;;5038942;28;20116;-82
2021/12/10 06:23:09;;;;;;;2.60;0.98;;;;;;;;;;5042508;28;20029;-83
2021/12/10 06:25:35;;;;;;;0.95;0.85;;;;;;;;;;5041706;28;20017;-84
2021/12/10 06:28:02;;;;;;;1.98;0.85;;;;;;;;;;5047831;28;20396;-81
2021/12/10 06:30:30;;;;;;;1.33;0.98;;;;;;;;;;5034880;28;20051;-83
2021/12/10 06:32:57;;;;;;;2.83;0.90;;;;;;;;;;5026213;28;20205;-80
2021/12/10 06:35:24;;;;;;;7.40;4.45;;;-0.80;99.90;;;;;;5044580;28;20032;-80
2021/12/10 06:37:53;;;;;;;25.23;9.05;;;;;;;;;;5048557;28;20017;-80
2021/12/10 06:40:20;;;;;;;10.27;4.38;;;;;;;;;;5044472;28;20025;-79
2021/12/10 06:42:46;;;;;;;2.92;1.35;;;;;;;;;;5043186;28;20059;-80
2021/12/10 06:45:13;;;;;;;3.25;1.85;;;;;;;;;;5040451;28;20025;-81
2021/12/10 06:47:41;;;;;;;9.45;2.83;;;;;;;;;;5049362;28;20122;-79
2021/12/10 06:50:08;;;;;;;3.38;2.30;;;;;;;;;;5037049;28;20044;-79
2021/12/10 06:52:34;;;;;;;11.27;2.70;;;;;;;;;;5048451;28;20033;-79
2021/12/10 06:55:00;;;;;;;9.77;4.88;;;;;;;;;;5039450;28;20071;-80
2021/12/10 06:57:26;;;;;;;5.47;2.47;;;;;;;;;;5042423;28;20045;-80
2021/12/10 06:59:53;;;;;;;5.57;2.90;;;;;;;;;;5034706;28;20083;-80
2021/12/10 07:02:19;;;;;;;4.25;3.03;;;;;;;;;;5047420;28;20484;-79
2021/12/10 07:04:45;;;;;;;6.55;1.83;;;;;;;;;;5038587;28;20488;-79
2021/12/10 07:07:12;;;;;;;2.13;1.65;;;;;;;;;;5035748;28;20037;-79
2021/12/10 07:09:38;;;;;;;3.47;1.90;;;-0.90;99.90;;;;;;5035183;28;20497;-79
2021/12/10 07:12:06;;;;;;;3.22;2.83;;;;;;;;;;5049658;28;20032;-80
2021/12/10 07:14:32;;;;;;;6.10;3.10;;;;;;;;;;5041636;28;20033;-81
2021/12/10 07:16:58;;;;;;;3.92;2.08;;;;;;;;;;5055676;28;20044;-82
2021/12/10 07:19:26;;;;;;;3.97;2.33;;;;;;;;;;5035892;28;20037;-81
2021/12/10 07:21:52;;;;;;;3.63;2.30;;;;;;;;;;5043256;28;20516;-81
2021/12/10 07:24:19;;;;;;;10.65;3.55;;;;;;;;;;5039713;28;20034;-82
2021/12/10 07:26:45;;;;;;;7.93;2.35;;;;;;;;;;5043242;28;20033;-80
2021/12/10 07:29:11;;;;;;;3.97;2.20;;;;;;;;;;5050729;28;20021;-81
2021/12/10 07:31:38;;;;;;;3.65;2.35;;;;;;;;;;5038950;28;20032;-80
2021/12/10 07:34:04;;;;;;;3.85;1.88;;;;;;;;;;5034108;28;20033;-81
2021/12/10 07:36:31;;;;;;;3.03;2.15;;;;;;;;;;5036708;28;20029;-82
2021/12/10 07:38:57;;;;;;;3.85;2.20;;;;;;;;;;5040722;28;20057;-80
2021/12/10 07:41:23;;;;;;;4.47;1.50;;;;;;;;;;5037259;28;20049;-81
2021/12/10 07:43:50;;;;;;;5.03;2.70;;;;;;;;;;5042845;28;20026;-80
2021/12/10 07:46:16;;;;;;;6.43;2.10;;;;;;;;;;5049740;28;20041;-80
2021/12/10 07:48:43;;;;;;;7.60;4.25;;;;;;;;;;5041721;28;20022;-81
2021/12/10 07:51:15;;;;;;;6.43;2.67;;;;;;;;;;5039072;28;20029;-80
2021/12/10 07:53:41;;;;;;;7.80;3.03;;;;;;;;;;5040508;28;20492;-80
2021/12/10 07:56:09;;;;;;;8.88;3.03;;;;;;;;;;5038316;28;20029;-81
2021/12/10 07:58:35;;;;;;;8.98;3.60;;;;;;;;;;5044198;28;20037;-81
2021/12/10 08:01:05;;;;;;;6.30;3.15;;;;;;;;;;5038394;28;20087;-81
2021/12/10 08:03:31;;;;;;;6.25;2.90;;;;;;;;;;5037835;28;20484;-80
2021/12/10 08:05:57;;;;;;;4.15;2.60;;;;;;;;;;5040929;28;20087;-81
2021/12/10 08:08:23;;;;;;;5.15;2.53;;;;;;;;;;5034599;28;20029;-80
2021/12/10 08:10:49;;;;;;;7.05;3.35;;;;;;;;;;5047017;28;20032;-81
2021/12/10 08:13:17;;;;;;;11.40;5.22;;;;;;;;;;5041563;28;20029;-81
2021/12/10 08:15:43;;;;;;;12.63;5.03;;;;;;;;;;5047762;28;20017;-79
2021/12/10 08:18:09;;;;;;;9.40;3.38;;;;;;;;;;5037075;28;20419;-81
2021/12/10 08:20:36;;;;;;;13.85;4.85;;;;;;;;;;5044118;28;20032;-81
2021/12/10 08:23:02;;;;;;;10.10;5.03;;;;;;;;;;5043481;28;20032;-81
2021/12/10 08:25:28;;;;;;;12.15;5.60;;;;;;;;;;5034843;28;20025;-81
2021/12/10 08:27:55;;;;;;;8.00;5.13;;;-0.60;99.90;;;;;;5046909;28;20036;-81
2021/12/10 08:30:23;;;;;;;24.20;5.68;;;;;;;;;;5049259;28;20029;-80
2021/12/10 08:32:49;;;;;;;13.02;4.20;;;;;;;;;;5035710;28;20033;-80
2021/12/10 08:35:20;;;;;;;13.18;6.13;;;0.50;99.90;;;;;;5040919;28;20049;-79
2021/12/10 08:37:46;;;;;;;14.02;5.30;;;;;;;;;;5041787;28;20089;-83
2021/12/10 08:40:13;;;;;;;7.30;4.85;;;;;;;;;;5046424;28;20017;-81
2021/12/10 08:42:39;;;;;;;9.55;5.05;;;;;;;;;;5042187;28;20041;-82
2021/12/10 08:45:06;;;;;;;22.52;5.57;;;;;;;;;;5038966;28;20392;-81
2021/12/10 08:47:32;;;;;;;22.90;5.13;;;;;;;;;;5037139;28;20116;-83
2021/12/10 08:49:58;;;;;;;19.17;6.55;;;;;;;;;;5043755;28;20546;-80
2021/12/10 08:52:24;;;;;;;13.90;5.97;;;;;;;;;;5044355;28;20041;-80
2021/12/10 08:54:50;;;;;;;14.00;4.90;;;;;;;;;;5043203;28;20124;-82
2021/12/10 08:57:16;;;;;;;10.20;4.35;;;;;;;;;;5041025;28;20048;-81
2021/12/10 08:59:42;;;;;;;9.18;5.63;;;;;;;;;;5038983;28;20029;-81
2021/12/10 09:02:15;;;;;;;11.32;4.75;;;;;;;;;;5042383;28;20033;-80
2021/12/10 09:04:42;;;;;;;7.47;4.23;;;;;;;;;;5042692;28;20459;-81
2021/12/10 09:07:09;;;;;;;14.02;5.70;;;;;;;;;;5043089;28;20033;-81
2021/12/10 09:09:36;;;;;;;10.75;4.55;;;;;;;;;;5038294;28;20025;-81
2021/12/10 09:12:04;;;;;;;12.13;4.80;;;;;;;;;;5038459;28;20489;-81
2021/12/10 09:14:37;;;;;;;9.35;3.20;;;;;;;;;;5043694;28;20045;-82
2021/12/10 09:17:03;;;;;;;12.85;3.92;;;1.70;99.90;;;;;;5034218;28;20446;-82
2021/12/10 09:19:29;;;;;;;11.60;5.10;;;2.00;99.90;;;;;;5041107;28;20043;-80
2021/12/10 09:21:56;;;;;;;14.52;5.32;;;1.20;99.90;;;;;;5042575;28;20032;-82
2021/12/10 09:24:23;;;;;;;12.13;5.30;;;;;;;;;;5051882;28;20425;-80
2021/12/10 09:26:53;;;;;;;7.20;4.25;;;;;;;;;;5044330;28;20048;-81
2021/12/10 09:29:19;;;;;;;13.32;3.47;;;;;;;;;;5042303;28;20037;-81
2021/12/10 09:31:46;;;;;;;13.15;5.35;;;;;;;;;;5043792;28;20106;-80
2021/12/10 09:34:14;;;;;;;8.32;3.47;;;1.90;99.90;;;;;;5039674;28;20071;-80
2021/12/10 09:36:40;;;;;;;14.10;4.68;;;;;;;;;;5042133;28;20417;-81
2021/12/10 09:39:07;;;;;;;14.07;4.95;;;;;;;;;;5044615;28;20120;-81
2021/12/10 09:41:33;;;;;;;11.05;5.05;;;;;;;;;;5037086;28;20032;-80
2021/12/10 09:44:00;;;;;;;9.27;4.65;;;;;;;;;;5048352;28;20021;-80
2021/12/10 09:46:26;;;;;;;10.40;4.53;;;;;;;;;;5047118;28;20039;-80
2021/12/10 09:48:52;;;;;;;7.15;3.78;;;;;;;;;;5046037;28;20029;-80
2021/12/10 09:51:20;;;;;;;7.10;3.35;;;;;;;;;;5040133;28;20037;-81
2021/12/10 09:53:49;;;;;;;9.55;2.75;;;;;;;;;;5048531;28;20040;-81
2021/12/10 09:56:16;;;;;;;8.23;2.08;;;;;;;;;;5038862;28;20036;-80
2021/12/10 09:58:42;;;;;;;7.10;3.10;;;;;;;;;;5041401;28;20036;-81
2021/12/10 10:01:16;;;;;;;6.65;3.42;;;2.30;99.90;;;;;;5044632;28;20025;-80
2021/12/10 10:03:44;;;;;;;8.98;3.72;;;2.30;99.90;;;;;;5038517;28;20067;-80
2021/12/10 10:06:10;;;;;;;9.10;3.45;;;;;;;;;;5034832;28;20124;-80
2021/12/10 10:08:37;;;;;;;8.52;2.65;;;2.50;99.90;;;;;;5040353;28;20029;-80
2021/12/10 10:11:06;;;;;;;8.98;1.70;;;;;;;;;;5040172;28;20385;-81
2021/12/10 10:13:35;;;;;;;3.88;2.17;;;2.30;99.90;;;;;;5047091;28;20488;-81
2021/12/10 10:16:02;;;;;;;4.47;1.70;;;;;;;;;;5046035;28;20382;-82
2021/12/10 10:18:30;;;;;;;3.58;2.03;;;;;;;;;;5042704;28;20017;-80
2021/12/10 10:20:58;;;;;;;5.40;2.00;;;;;;;;;;5034379;28;20662;-80
2021/12/10 10:23:24;;;;;;;8.95;1.88;;;;;;;;;;5032003;28;20030;-80
2021/12/10 10:25:52;;;;;;;4.10;1.85;;;;;;;;;;5037051;28;20390;-81
2021/12/10 10:28:19;;;;;;;3.85;2.28;;;3.40;99.90;;;;;;5040599;28;20613;-80
2021/12/10 10:30:52;;;;;;;5.40;2.53;;;;;;;;;;5042766;28;20029;-81
2021/12/10 10:33:18;;;;;;;;;;;;;;;;;;5046611;28;20044;-81
2021/12/10 10:35:47;;;;;;;4.90;1.95;;;;;;;;;;5041140;28;19909;-81
2021/12/10 10:38:16;;;;;;;4.47;1.90;;;;;;;;;;5046187;28;20021;-81
2021/12/10 10:40:45;;;;;;;2.92;1.33;;;;;;;;;;5044854;28;20090;-81
2021/12/10 10:43:11;;;;;;;3.83;1.48;;;;;;;;;;5043544;28;20031;-80
2021/12/10 10:45:42;;;;;;;2.88;1.40;;;;;;;;;;5049867;28;20101;-81
2021/12/10 10:48:08;;;;;;;2.70;1.05;;;;;;;;;;5039454;28;20504;-81
2021/12/10 10:50:37;;;;;;;2.47;1.48;;;;;;;;;;5038210;28;20085;-80
2021/12/10 10:53:11;;;;;;;1.33;1.23;;;;;;;;;;5039770;28;20103;-81
2021/12/10 10:55:41;;;;;;;2.08;0.82;;;3.90;99.90;;;;;;5046436;28;20457;-81
2021/12/10 10:58:10;;;;;;;1.40;0.77;;;;;;;;;;5047068;28;20049;-80
2021/12/10 11:01:01;;;;;;;6.32;1.42;;;;;;;;;;5042850;28;20033;-81
2021/12/10 11:03:36;;;;;;;9.02;2.22;;;;;;;;;;5044890;28;20028;-80
2021/12/10 11:06:04;;;;;;;3.00;1.92;;;;;;;;;;5048959;28;20063;-80
2021/12/10 11:08:32;;;;;;;2.85;1.25;;;;;;;;;;5038995;28;20034;-81
2021/12/10 11:11:18;;;;;;;1.10;0.80;;;;;;;;;;5046083;28;20031;-80
2021/12/10 11:13:45;;;;;;;2.17;0.90;;;;;;;;;;5041226;28;20115;-80
2021/12/10 11:16:14;;;;;;;2.75;0.88;;;;;;;;;;5052426;28;20029;-80
2021/12/10 11:18:52;;;;;;;2.25;1.35;;;;;;;;;;5046121;28;20029;-81
2021/12/10 11:21:38;;;;;;;2.20;1.15;;;2.80;99.90;;;;;;5047734;28;20029;-80
2021/12/10 11:24:23;;;;;;;2.67;1.33;;;;;;;;;;5043218;28;20084;-81
2021/12/10 11:26:59;;;;;;;1.50;0.85;;;;;;;;;;5039850;28;20059;-80
2021/12/10 11:29:36;;;;;;;3.33;1.52;;;;;;;;;;5044566;28;20040;-80
2021/12/10 11:32:25;;;;;;;2.85;1.05;;;2.80;99.90;;;;;;5041696;28;20103;-80
2021/12/10 11:34:53;;;;;;;1.98;1.13;;;;;;;;;;5036440;28;20041;-80
2021/12/10 11:37:39;;;;;;;2.35;0.70;;;;;;;;;;5052166;28;20062;-80
2021/12/10 11:40:27;;;;;;;2.70;1.52;;;;;;;;;;5041473;28;20032;-81
2021/12/10 11:42:59;;;;;;;4.13;0.95;;;;;;;;;;5039603;28;20036;-80
2021/12/10 11:45:43;;;;;;;2.35;1.00;;;;;;;;;;5048775;28;20081;-81
2021/12/10 11:48:18;;;;;;;5.40;1.48;;;3.70;99.90;;;;;;5035207;28;20032;-80
2021/12/10 11:50:46;;;;;;;11.05;2.20;;;;;;;;;;5036635;28;20091;-81
2021/12/10 11:53:16;;;;;;;2.70;1.30;;;;;;;;;;5043207;28;20041;-80
2021/12/10 11:55:56;;;;;;;3.53;1.52;;;;;;;;;;5046564;28;20042;-81
2021/12/10 11:58:23;;;;;;;0.95;0.60;;;;;;;;;;5051419;28;20465;-81
2021/12/10 12:00:50;;;;;;;3.65;1.65;;;;;;;;;;5044719;28;20078;-80
2021/12/10 12:03:16;;;;;;;2.30;0.85;;;;;;;;;;5039132;28;20041;-81
2021/12/10 12:05:44;;;;;;;1.17;0.50;;;;;;;;;;5045861;28;20024;-80
2021/12/10 12:08:11;;;;;;;2.53;0.90;;;;;;;;;;5045646;28;20448;-81
2021/12/10 12:10:44;;;;;;;2.28;0.68;;;3.90;99.90;;;;;;5045090;28;20417;-81
2021/12/10 12:15:45;;;;;;;1.83;0.88;;;;;;;;;;5045384;28;20032;-80
2021/12/10 12:18:22;;;;;;;0.88;0.60;;;;;;;;;;5039021;28;20034;-81
2021/12/10 12:20:52;;;;;;;1.30;0.82;;;;;;;;;;5042054;28;20036;-80
2021/12/10 12:26:12;;;;;;;1.45;0.65;;;;;;;;;;5038855;28;20087;-81
2021/12/10 12:28:39;;;;;;;0.55;0.40;;;;;;;;;;5041380;28;20036;-81
2021/12/10 12:31:07;;;;;;;1.20;0.63;;;;;;;;;;5043078;28;20079;-81
2021/12/10 12:33:49;;;;;;;2.92;1.05;;;;;;;;;;5037557;28;20404;-80
2021/12/10 12:36:15;;;;;;;1.95;1.30;;;;;;;;;;5044849;28;20346;-81
2021/12/10 12:38:44;;;;;;;1.50;0.68;;;;;;;;;;5040518;28;20130;-81
2021/12/10 12:41:12;;;;;;;2.45;1.33;;;;;;;;;;5042523;28;20024;-81
2021/12/10 12:43:39;;;;;;;4.93;1.70;;;;;;;;;;5042526;28;20033;-81
2021/12/10 12:46:06;;;;;;;4.82;1.77;;;;;;;;;;5038097;28;20030;-80
2021/12/10 12:48:32;;;;;;;3.70;1.05;;;;;;;;;;5038821;28;20029;-80
2021/12/10 12:51:02;;;;;;;3.20;0.60;;;;;;;;;;5036714;28;20060;-81
2021/12/10 12:53:33;;;;;;;4.90;1.45;;;;;;;;;;5040018;28;20037;-81
2021/12/10 12:56:10;;;;;;;0.80;0.73;;;;;;;;;;5036226;28;20029;-81
2021/12/10 12:58:59;;;;;;;1.55;0.77;;;;;;;;;;5039391;28;20067;-81
2021/12/10 13:01:30;;;;;;;8.60;2.15;;;;;;;;;;5042191;28;20072;-81
2021/12/10 13:04:02;;;;;;;3.10;0.90;;;;;;;;;;5034355;28;20157;-80
2021/12/10 13:06:28;;;;;;;3.78;2.25;;;;;;;;;;5041739;28;20404;-80
2021/12/10 13:08:58;;;;;;;0.80;0.70;;;;;;;;;;5039162;28;20028;-80
2021/12/10 13:11:31;;;;;;;0.55;0.40;;;;;;;;;;5044766;28;20024;-79
2021/12/10 13:14:02;;;;;;;2.35;0.93;;;;;;;;;;5037188;28;20046;-80
2021/12/10 13:16:31;;;;;;;1.67;0.70;;;;;;;;;;5049881;28;20112;-80
2021/12/10 13:18:59;;;;;;;1.83;0.73;;;;;;;;;;5034126;28;20033;-80
2021/12/10 13:21:25;;;;;;;1.08;0.60;;;;;;;;;;5028278;28;20132;-80
2021/12/10 13:23:50;;;;;;;0.77;0.52;;;;;;;;;;5035986;28;20053;-80
2021/12/10 13:26:16;;;;;;;1.60;0.80;;;;;;;;;;5041532;28;20118;-80
2021/12/10 13:28:42;;;;;;;3.55;0.82;;;;;;;;;;5032749;28;20030;-80
2021/12/10 13:31:10;;;;;;;1.00;0.90;;;;;;;;;;5041138;28;20559;-81
2021/12/10 13:33:38;;;;;;;2.25;0.73;;;;;;;;;;5043172;28;20039;-80
2021/12/10 13:36:05;;;;;;;0.90;0.55;;;;;;;;;;5046226;28;20040;-81
2021/12/10 13:38:33;;;;;;;2.50;0.70;;;;;;;;;;5045970;28;20033;-82
2021/12/10 13:41:00;;;;;;;1.38;0.60;;;;;;;;;;5034149;28;20033;-82
2021/12/10 13:43:27;;;;;;;0.73;0.45;;;;;;;;;;5042098;28;20392;-80
2021/12/10 13:45:59;;;;;;;1.02;0.52;;;;;;;;;;5042590;28;20033;-81
2021/12/10 13:48:38;;;;;;;3.85;0.68;;;;;;;;;;5043115;28;20037;-80
2021/12/10 13:51:05;;;;;;;3.05;0.43;;;;;;;;;;5045563;28;20493;-81
2021/12/10 13:53:31;;;;;;;0.80;0.40;;;;;;;;;;5038076;28;20041;-80
2021/12/10 13:56:04;;;;;;;1.92;0.47;;;;;;;;;;5037169;28;20025;-80
2021/12/10 13:58:33;;;;;;;;;;;;;;;;;;5036712;28;20052;-81
2021/12/10 14:00:59;;;;;;;2.25;0.40;;;;;;;;;;5040388;28;19961;-80
2021/12/10 14:03:38;;;;;;;1.20;0.52;;;;;;;;;;5040872;28;20030;-81
2021/12/10 14:06:04;;;;;;;1.17;0.73;;;;;;;;;;5042730;28;20025;-80
2021/12/10 14:08:30;;;;;;;0.30;0.30;;;;;;;;;;5038580;28;20137;-81
2021/12/10 14:11:02;;;;;;;13.00;0.98;;;;;;;;;;5046552;28;20048;-81
2021/12/10 14:13:33;;;;;;;0.93;0.60;;;;;;;;;;5044809;28;20048;-80
2021/12/10 14:16:05;;;;;;;0.90;0.40;;;;;;;;;;5038674;28;20504;-83
2021/12/10 14:18:35;;;;;;;1.08;0.55;;;;;;;;;;5040624;28;20037;-80
2021/12/10 14:21:04;;;;;;;0.68;0.68;;;;;;;;;;5036201;28;20064;-79
2021/12/10 14:23:35;;;;;;;3.17;0.70;;;;;;;;;;5050756;28;20021;-82
2021/12/10 14:26:23;;;;;;;1.02;0.50;;;;;;;;;;5047789;28;20061;-80
2021/12/10 14:28:51;;;;;;;1.85;0.93;;;;;;;;;;5056545;28;20123;-80
2021/12/10 14:31:19;;;;;;;1.38;0.63;;;;;;;;;;5042080;28;20033;-80
2021/12/10 14:33:46;;;;;;;0.85;0.52;;;;;;;;;;5038647;28;20039;-81
2021/12/10 14:36:15;;;;;;;1.33;0.47;;;;;;;;;;5038502;28;20048;-81
2021/12/10 14:38:47;;;;;;;0.77;0.30;;;;;;;;;;5034923;28;20112;-82
2021/12/10 14:41:16;;;;;;;0.90;0.50;;;;;;;;;;5041574;28;20020;-81
2021/12/10 14:43:45;;;;;;;2.20;0.93;;;;;;;;;;5040801;28;20025;-82
2021/12/10 14:46:14;;;;;;;0.80;0.40;;;;;;;;;;5043813;28;20036;-82
2021/12/10 14:49:00;;;;;;;1.17;0.32;;;;;;;;;;5040731;28;20149;-82